createdAt,value
2022-11-03T00:01:26.893Z,99589.94
2022-11-03T00:03:00.301Z,99587.41
2022-11-03T00:04:38.800Z,99585.56
2022-11-03T00:06:10.975Z,99584.78
2022-11-03T00:07:44.189Z,99596.84
2022-11-03T00:09:19.219Z,99588.00
2022-11-03T00:10:51.450Z,99586.59
2022-11-03T00:12:24.725Z,99591.78
2022-11-03T00:13:58.182Z,99595.22
2022-11-03T00:15:30.275Z,99598.81
2022-11-03T00:17:03.603Z,99598.84
2022-11-03T00:18:36.956Z,99600.66
2022-11-03T00:20:12.920Z,99606.13
2022-11-03T00:21:46.672Z,99599.31
2022-11-03T00:23:19.916Z,99597.88
2022-11-03T00:24:53.143Z,99613.78
2022-11-03T00:26:27.675Z,99601.38
2022-11-03T00:28:00.851Z,99606.66
2022-11-03T00:29:34.112Z,99597.13
2022-11-03T00:31:10.572Z,99601.66
2022-11-03T00:32:43.924Z,99597.97
2022-11-03T00:34:17.152Z,99597.03
2022-11-03T00:35:51.859Z,99600.38
2022-11-03T00:37:25.032Z,99596.69
2022-11-03T00:38:57.790Z,99599.31
2022-11-03T00:40:31.257Z,99599.31
2022-11-03T00:42:04.823Z,99589.63
2022-11-03T00:43:38.307Z,99598.63
2022-11-03T00:45:11.805Z,99603.00
2022-11-03T00:46:45.612Z,99595.97
2022-11-03T00:48:30.740Z,99601.50
2022-11-03T00:50:03.966Z,99588.41
2022-11-03T00:51:38.471Z,99603.41
2022-11-03T00:53:10.656Z,99599.94
2022-11-03T00:54:45.554Z,99592.78
2022-11-03T00:56:21.088Z,99598.91
2022-11-03T00:57:53.488Z,99596.16
2022-11-03T00:59:26.734Z,99582.06
2022-11-03T01:01:03.140Z,99597.59
2022-11-03T01:02:36.375Z,99589.38
2022-11-03T01:04:28.026Z,99598.91
2022-11-03T01:06:18.834Z,99591.69
2022-11-03T01:07:54.639Z,99596.16
2022-11-03T01:09:29.698Z,99604.09
2022-11-03T01:11:26.781Z,99595.22
2022-11-03T01:12:59.951Z,99601.53
2022-11-03T01:14:35.350Z,99594.56
2022-11-03T01:16:07.973Z,99589.56
2022-11-03T01:17:41.976Z,99590.47
2022-11-03T01:19:14.156Z,99595.75
2022-11-03T01:20:47.307Z,99585.22
2022-11-03T01:22:21.360Z,99594.97
2022-11-03T01:23:55.874Z,99584.41
2022-11-03T01:25:29.084Z,99588.75
2022-11-03T01:27:02.424Z,99592.41
2022-11-03T01:28:34.736Z,99591.47
2022-11-03T01:30:08.917Z,99588.94
2022-11-03T01:31:41.035Z,99585.50
2022-11-03T01:33:15.352Z,99596.06
2022-11-03T01:34:48.869Z,99586.13
2022-11-03T01:36:22.453Z,99588.69
2022-11-03T01:37:56.607Z,99600.94
2022-11-03T01:39:31.106Z,99599.31
2022-11-03T01:41:07.249Z,99590.81
2022-11-03T01:42:40.495Z,99588.22
2022-11-03T01:44:35.676Z,99601.56
2022-11-03T01:46:15.469Z,99597.19
2022-11-03T01:47:49.040Z,99594.97
2022-11-03T01:49:26.071Z,99602.06
2022-11-03T01:50:59.322Z,99601.09
2022-11-03T01:52:36.907Z,99600.03
2022-11-03T01:54:12.874Z,99600.91
2022-11-03T01:55:49.568Z,99615.72
2022-11-03T01:57:27.171Z,99595.25
2022-11-03T01:59:00.681Z,99608.19
2022-11-03T02:00:34.211Z,99611.53
2022-11-03T02:02:08.340Z,99607.88
2022-11-03T02:03:45.074Z,99611.34
2022-11-03T02:05:20.912Z,99607.88
2022-11-03T02:07:03.004Z,99616.72
2022-11-03T02:08:39.479Z,99607.22
2022-11-03T02:10:12.867Z,99612.75
2022-11-03T02:12:05.680Z,99614.59
2022-11-03T02:13:38.960Z,99613.78
2022-11-03T02:15:14.812Z,99612.88
2022-11-03T02:16:52.778Z,99613.78
2022-11-03T02:18:33.803Z,99614.50
2022-11-03T02:20:11.311Z,99606.56
2022-11-03T02:21:54.741Z,99608.28
2022-11-03T02:23:34.439Z,99608.28
2022-11-03T02:25:17.158Z,99616.38
2022-11-03T02:26:56.643Z,99618.00
2022-11-03T02:28:32.176Z,99610.97
2022-11-03T02:30:05.238Z,99608.56
2022-11-03T02:31:43.721Z,99615.81
2022-11-03T02:33:27.452Z,99602.28
2022-11-03T02:35:07.105Z,99618.91
2022-11-03T02:36:47.433Z,99617.09
2022-11-03T02:38:23.512Z,99616.31
2022-11-03T02:40:01.395Z,99615.59
2022-11-03T02:41:38.255Z,99621.59
2022-11-03T02:43:15.917Z,99622.66
2022-11-03T02:44:50.412Z,99624.69
2022-11-03T02:46:26.947Z,99629.00
2022-11-03T02:48:02.904Z,99625.44
2022-11-03T02:49:39.047Z,99618.25
2022-11-03T02:51:12.556Z,99628.59
2022-11-03T02:52:47.641Z,99627.66
2022-11-03T02:54:24.762Z,99628.50
2022-11-03T02:56:03.679Z,99623.13
2022-11-03T02:57:39.894Z,99624.84
2022-11-03T02:59:19.315Z,99630.16
2022-11-03T03:00:57.312Z,99619.09
2022-11-03T03:02:36.207Z,99623.72
2022-11-03T03:04:10.916Z,99620.31
2022-11-03T03:05:46.577Z,99622.97
2022-11-03T03:07:26.309Z,99620.44
2022-11-03T03:09:04.646Z,99634.59
2022-11-03T03:10:42.713Z,99629.56
2022-11-03T03:12:18.619Z,99636.69
2022-11-03T03:13:51.761Z,99633.22
2022-11-03T03:15:32.996Z,99634.22
2022-11-03T03:17:10.265Z,99637.88
2022-11-03T03:18:50.094Z,99640.44
2022-11-03T03:20:29.690Z,99642.16
2022-11-03T03:22:09.956Z,99640.59
2022-11-03T03:23:49.841Z,99643.88
2022-11-03T03:25:27.974Z,99647.28
2022-11-03T03:27:05.098Z,99651.66
2022-11-03T03:28:43.947Z,99650.81
2022-11-03T03:30:18.578Z,99650.94
2022-11-03T03:31:57.258Z,99654.84
2022-11-03T03:33:31.760Z,99648.28
2022-11-03T03:35:08.777Z,99653.97
2022-11-03T03:36:45.877Z,99668.06
2022-11-03T03:38:25.301Z,99657.50
2022-11-03T03:40:02.159Z,99669.81
2022-11-03T03:41:37.303Z,99671.53
2022-11-03T03:43:13.680Z,99669.66
2022-11-03T03:44:48.305Z,99663.50
2022-11-03T03:46:24.294Z,99665.00
2022-11-03T03:47:59.361Z,99668.50
2022-11-03T03:49:33.821Z,99671.13
2022-11-03T03:51:08.618Z,99661.44
2022-11-03T03:52:41.071Z,99679.91
2022-11-03T03:54:14.320Z,99682.44
2022-11-03T03:55:50.853Z,99666.81
2022-11-03T03:57:27.000Z,99683.25
2022-11-03T03:59:00.300Z,99681.44
2022-11-03T04:00:33.761Z,99684.03
2022-11-03T04:02:07.597Z,99683.25
2022-11-03T04:03:41.279Z,99679.13
2022-11-03T04:05:14.589Z,99681.78
2022-11-03T04:06:46.798Z,99681.06
2022-11-03T04:08:20.917Z,99678.31
2022-11-03T04:09:54.252Z,99671.25
2022-11-03T04:11:44.780Z,99673.06
2022-11-03T04:13:35.127Z,99679.13
2022-11-03T04:15:27.838Z,99657.41
2022-11-03T04:17:17.845Z,99675.69
2022-11-03T04:19:10.034Z,99678.34
2022-11-03T04:21:00.826Z,99688.06
2022-11-03T04:22:35.218Z,99674.97
2022-11-03T04:24:08.542Z,99675.34
2022-11-03T04:25:41.815Z,99681.00
2022-11-03T04:27:29.760Z,99674.38
2022-11-03T04:29:03.339Z,99665.06
2022-11-03T04:30:35.539Z,99680.75
2022-11-03T04:32:15.419Z,99674.59
2022-11-03T04:33:49.589Z,99676.31
2022-11-03T04:35:26.779Z,99678.06
2022-11-03T04:37:00.264Z,99681.59
2022-11-03T04:38:33.464Z,99678.97
2022-11-03T04:40:15.586Z,99676.34
2022-11-03T04:41:48.813Z,99675.53
2022-11-03T04:43:23.343Z,99689.66
2022-11-03T04:44:56.679Z,99683.56
2022-11-03T04:46:31.031Z,99688.78
2022-11-03T04:48:12.868Z,99680.13
2022-11-03T04:49:48.062Z,99695.78
2022-11-03T04:51:26.376Z,99692.34
2022-11-03T04:53:00.220Z,99697.69
2022-11-03T04:54:33.542Z,99697.75
2022-11-03T04:56:15.855Z,99697.81
2022-11-03T04:57:51.817Z,99693.59
2022-11-03T04:59:25.019Z,99711.16
2022-11-03T05:01:00.000Z,99705.06
2022-11-03T05:02:33.271Z,99703.34
2022-11-03T05:04:12.851Z,99709.44
2022-11-03T05:05:45.080Z,99699.84
2022-11-03T05:07:27.312Z,99710.28
2022-11-03T05:09:04.129Z,99709.38
2022-11-03T05:10:37.350Z,99685.03
2022-11-03T05:12:10.348Z,99720.59
2022-11-03T05:13:43.753Z,99714.44
2022-11-03T05:15:32.820Z,99717.00
2022-11-03T05:17:19.143Z,99720.53
2022-11-03T05:18:52.573Z,99712.53
2022-11-03T05:20:35.702Z,99722.09
2022-11-03T05:22:17.304Z,99730.75
2022-11-03T05:23:53.821Z,99730.63
2022-11-03T05:25:41.585Z,99730.41
2022-11-03T05:27:20.581Z,99726.78
2022-11-03T05:28:59.763Z,99733.69
2022-11-03T05:30:32.959Z,99730.06
2022-11-03T05:32:13.368Z,99741.38
2022-11-03T05:33:49.806Z,99731.66
2022-11-03T05:35:24.585Z,99744.59
2022-11-03T05:36:59.661Z,99744.41
2022-11-03T05:38:34.434Z,99746.78
2022-11-03T05:40:21.953Z,99751.91
2022-11-03T05:41:55.838Z,99741.94
2022-11-03T05:43:29.933Z,99739.25
2022-11-03T05:45:09.328Z,99746.97
2022-11-03T05:46:42.795Z,99745.97
2022-11-03T05:48:31.743Z,99752.75
2022-11-03T05:50:15.540Z,99753.44
2022-11-03T05:51:49.082Z,99751.44
2022-11-03T05:53:30.413Z,99759.22
2022-11-03T05:55:04.583Z,99755.50
2022-11-03T05:56:39.371Z,99757.03
2022-11-03T05:58:25.234Z,99754.22
2022-11-03T05:59:59.477Z,99765.34
2022-11-03T06:01:35.599Z,99766.88
2022-11-03T06:03:11.016Z,99777.34
2022-11-03T06:04:44.295Z,99777.34
2022-11-03T06:06:22.176Z,99779.13
2022-11-03T06:07:56.394Z,99779.88
2022-11-03T06:09:32.720Z,99771.03
2022-11-03T06:11:06.981Z,99790.84
2022-11-03T06:12:41.544Z,99792.50
2022-11-03T06:14:21.301Z,99793.06
2022-11-03T06:16:00.476Z,99797.22
2022-11-03T06:17:33.773Z,99795.19
2022-11-03T06:19:30.098Z,99795.94
2022-11-03T06:21:08.550Z,99799.44
2022-11-03T06:22:41.796Z,99809.09
2022-11-03T06:24:15.934Z,99792.19
2022-11-03T06:25:50.135Z,99809.97
2022-11-03T06:27:25.382Z,99812.94
2022-11-03T06:29:01.589Z,99819.09
2022-11-03T06:30:37.240Z,99815.78
2022-11-03T06:32:13.788Z,99812.50
2022-11-03T06:33:47.107Z,99809.97
2022-11-03T06:35:20.600Z,99810.00
2022-11-03T06:36:53.917Z,99811.19
2022-11-03T06:38:30.153Z,99796.53
2022-11-03T06:40:24.801Z,99803.72
2022-11-03T06:41:58.128Z,99808.34
2022-11-03T06:43:39.184Z,99806.72
2022-11-03T06:45:20.034Z,99814.94
2022-11-03T06:46:55.595Z,99815.47
2022-11-03T06:48:30.575Z,99810.09
2022-11-03T06:50:09.736Z,99803.88
2022-11-03T06:51:42.873Z,99807.38
2022-11-03T06:53:22.800Z,99808.47
2022-11-03T06:55:01.940Z,99806.75
2022-11-03T06:56:38.327Z,99807.44
2022-11-03T06:58:18.662Z,99807.44
2022-11-03T07:00:06.580Z,99804.22
2022-11-03T07:01:51.674Z,99809.63
2022-11-03T07:03:30.198Z,99806.56
2022-11-03T07:05:03.401Z,99804.75
2022-11-03T07:06:37.875Z,99810.94
2022-11-03T07:08:24.533Z,99803.44
2022-11-03T07:09:57.689Z,99812.31
2022-11-03T07:11:33.240Z,99806.81
2022-11-03T07:13:15.620Z,99806.00
2022-11-03T07:14:48.989Z,99808.19
2022-11-03T07:16:31.040Z,99809.72
2022-11-03T07:18:14.458Z,99809.56
2022-11-03T07:19:47.883Z,99807.28
2022-11-03T07:21:34.834Z,99802.03
2022-11-03T07:23:14.275Z,99796.91
2022-11-03T07:24:48.845Z,99795.59
2022-11-03T07:26:22.072Z,99802.03
2022-11-03T07:27:57.910Z,99800.66
2022-11-03T07:29:32.485Z,99797.91
2022-11-03T07:31:16.484Z,99796.09
2022-11-03T07:32:52.939Z,99792.59
2022-11-03T07:34:32.767Z,99798.31
2022-11-03T07:36:16.206Z,99800.38
2022-11-03T07:37:53.545Z,99796.91
2022-11-03T07:39:36.185Z,99796.25
2022-11-03T07:41:14.803Z,99799.56
2022-11-03T07:42:48.018Z,99797.66
2022-11-03T07:44:22.824Z,99803.31
2022-11-03T07:45:58.631Z,99793.69
2022-11-03T07:47:31.862Z,99798.56
2022-11-03T07:49:08.729Z,99792.59
2022-11-03T07:50:44.167Z,99803.56
2022-11-03T07:52:21.210Z,99793.69
2022-11-03T07:53:57.011Z,99791.28
2022-11-03T07:55:30.274Z,99795.03
2022-11-03T07:57:12.433Z,99795.97
2022-11-03T07:58:46.100Z,99785.78
2022-11-03T08:00:22.687Z,99781.28
2022-11-03T08:01:58.733Z,99793.53
2022-11-03T08:03:45.139Z,99784.47
2022-11-03T08:06:57.893Z,99780.00
2022-11-03T08:08:31.064Z,99778.03
2022-11-03T08:10:05.171Z,99780.31
2022-11-03T08:11:38.410Z,99782.31
2022-11-03T08:13:11.644Z,99778.84
2022-11-03T08:14:44.848Z,99769.91
2022-11-03T08:16:18.438Z,99768.81
2022-11-03T08:17:55.996Z,99764.44
2022-11-03T08:19:30.131Z,99766.44
2022-11-03T08:21:03.318Z,99763.97
2022-11-03T08:22:38.182Z,99765.84
2022-11-03T08:24:11.471Z,99767.25
2022-11-03T08:25:44.987Z,99765.88
2022-11-03T08:27:19.431Z,99765.88
2022-11-03T08:28:53.387Z,99756.09
2022-11-03T08:30:26.533Z,99759.09
2022-11-03T08:31:59.857Z,99760.78
2022-11-03T08:33:33.629Z,99756.66
2022-11-03T08:35:07.673Z,99753.91
2022-11-03T08:36:40.818Z,99757.63
2022-11-03T08:38:15.363Z,99757.63
2022-11-03T08:39:48.571Z,99749.13
2022-11-03T08:41:22.003Z,99757.84
2022-11-03T08:42:55.179Z,99755.03
2022-11-03T08:44:28.347Z,99752.16
2022-11-03T08:46:08.196Z,99748.38
2022-11-03T08:47:46.564Z,99749.66
2022-11-03T08:49:19.803Z,99741.31
2022-11-03T08:50:54.276Z,99754.50
2022-11-03T08:52:27.748Z,99740.53
2022-11-03T08:54:02.428Z,99747.84
2022-11-03T08:55:35.637Z,99741.00
2022-11-03T08:57:08.973Z,99749.00
2022-11-03T08:58:42.093Z,99740.81
2022-11-03T09:00:17.736Z,99737.63
2022-11-03T09:01:51.184Z,99735.03
2022-11-03T09:03:24.432Z,99743.59
2022-11-03T09:04:57.610Z,99733.94
2022-11-03T09:06:30.853Z,99744.06
2022-11-03T09:11:51.876Z,99725.66
2022-11-03T09:13:25.196Z,99725.66
2022-11-03T09:14:58.311Z,99724.22
2022-11-03T09:16:31.488Z,99722.66
2022-11-03T09:18:05.396Z,99721.50
2022-11-03T09:19:38.946Z,99712.34
2022-11-03T09:21:12.087Z,99707.88
2022-11-03T09:22:45.333Z,99700.03
2022-11-03T09:24:18.653Z,99704.75
2022-11-03T09:25:53.222Z,99707.81
2022-11-03T09:27:26.427Z,99705.75
2022-11-03T09:28:59.583Z,99694.06
2022-11-03T09:30:32.825Z,99696.56
2022-11-03T09:32:06.538Z,99692.19
2022-11-03T09:33:39.642Z,99695.63
2022-11-03T09:35:14.553Z,99690.28
2022-11-03T09:36:52.952Z,99691.06
2022-11-03T09:38:26.412Z,99680.78
2022-11-03T09:39:59.808Z,99686.44
2022-11-03T09:41:55.980Z,99694.31
2022-11-03T09:43:29.023Z,99681.44
2022-11-03T09:45:04.810Z,99678.13
2022-11-03T09:46:37.965Z,99687.22
2022-11-03T09:48:11.854Z,99677.13
2022-11-03T09:49:45.358Z,99676.41
2022-11-03T09:51:22.182Z,99675.28
2022-11-03T09:52:55.534Z,99660.22
2022-11-03T09:54:29.873Z,99661.19
2022-11-03T09:56:03.275Z,99657.75
2022-11-03T09:57:38.083Z,99665.84
2022-11-03T09:59:22.053Z,99660.41
2022-11-03T10:00:55.358Z,99662.13
2022-11-03T10:02:31.515Z,99654.78
2022-11-03T10:04:05.546Z,99649.03
2022-11-03T10:05:40.123Z,99656.13
2022-11-03T10:07:13.320Z,99648.50
2022-11-03T10:08:48.513Z,99636.38
2022-11-03T10:10:23.440Z,99639.59
2022-11-03T10:11:57.239Z,99636.94
2022-11-03T10:13:35.824Z,99638.63
2022-11-03T10:15:15.936Z,99642.31
2022-11-03T10:16:53.660Z,99638.38
2022-11-03T10:18:28.916Z,99640.09
2022-11-03T10:20:03.817Z,99639.13
2022-11-03T10:21:38.128Z,99632.97
2022-11-03T10:23:11.363Z,99623.13
2022-11-03T10:24:44.521Z,99626.19
2022-11-03T10:26:19.722Z,99624.06
2022-11-03T10:27:53.055Z,99620.91
2022-11-03T10:29:28.990Z,99626.03
2022-11-03T10:31:14.273Z,99617.75
2022-11-03T10:32:47.619Z,99607.94
2022-11-03T10:34:36.524Z,99624.38
2022-11-03T10:36:25.354Z,99608.44
2022-11-03T10:38:01.803Z,99611.63
2022-11-03T10:39:35.194Z,99613.34
2022-11-03T10:41:13.133Z,99605.63
2022-11-03T10:43:00.043Z,99614.09
2022-11-03T10:44:34.778Z,99607.81
2022-11-03T10:48:12.526Z,99597.75
2022-11-03T10:49:45.746Z,99593.44
2022-11-03T10:51:19.194Z,99595.19
2022-11-03T10:52:53.179Z,99587.81
2022-11-03T10:54:26.839Z,99591.50
2022-11-03T10:56:00.052Z,99582.16
2022-11-03T10:57:33.585Z,99575.63
2022-11-03T10:59:06.976Z,99572.47
2022-11-03T11:00:43.668Z,99579.44
2022-11-03T11:02:20.836Z,99568.06
2022-11-03T11:03:55.403Z,99578.94
2022-11-03T11:05:28.713Z,99570.47
2022-11-03T11:07:01.983Z,99576.75
2022-11-03T11:08:35.289Z,99569.66
2022-11-03T11:10:13.523Z,99575.63
2022-11-03T11:12:00.818Z,99566.03
2022-11-03T11:13:33.998Z,99570.31
2022-11-03T11:15:38.833Z,99564.66
2022-11-03T11:17:57.033Z,99561.03
2022-11-03T11:19:52.558Z,99552.81
2022-11-03T11:22:11.164Z,99547.66
2022-11-03T11:23:46.192Z,99566.97
2022-11-03T11:25:20.053Z,99557.31
2022-11-03T11:26:53.276Z,99558.38
2022-11-03T11:28:26.528Z,99544.19
2022-11-03T11:30:01.821Z,99557.56
2022-11-03T11:31:35.691Z,99544.50
2022-11-03T11:33:15.735Z,99545.44
2022-11-03T11:34:50.508Z,99540.03
2022-11-03T11:36:26.256Z,99538.34
2022-11-03T11:38:37.999Z,99542.06
2022-11-03T11:40:14.686Z,99554.47
2022-11-03T11:42:11.970Z,99545.88
2022-11-03T11:43:45.298Z,99535.75
2022-11-03T11:45:56.843Z,99532.00
2022-11-03T11:47:33.062Z,99541.28
2022-11-03T11:49:19.118Z,99543.91
2022-11-03T11:50:53.885Z,99531.16
2022-11-03T11:52:26.506Z,99533.72
2022-11-03T11:54:17.196Z,99532.13
2022-11-03T11:55:55.081Z,99532.25
2022-11-03T11:57:34.159Z,99528.47
2022-11-03T11:59:07.482Z,99530.41
2022-11-03T12:00:52.603Z,99528.19
2022-11-03T12:02:31.160Z,99534.47
2022-11-03T12:04:08.509Z,99524.28
2022-11-03T12:05:41.921Z,99522.56
2022-11-03T12:07:16.501Z,99515.19
2022-11-03T12:08:49.778Z,99516.19
2022-11-03T12:10:26.200Z,99523.28
2022-11-03T12:12:07.072Z,99512.81
2022-11-03T12:13:51.447Z,99526.91
2022-11-03T12:15:50.446Z,99524.34
2022-11-03T12:17:34.114Z,99517.50
2022-11-03T12:19:35.728Z,99515.69
2022-11-03T12:21:10.378Z,99522.44
2022-11-03T12:22:44.943Z,99509.81
2022-11-03T12:24:36.301Z,99514.25
2022-11-03T12:26:40.271Z,99504.50
2022-11-03T12:28:31.854Z,99511.84
2022-11-03T12:30:08.736Z,99509.63
2022-11-03T12:31:42.243Z,99510.81
2022-11-03T12:33:15.448Z,99508.56
2022-11-03T12:34:48.693Z,99515.59
2022-11-03T12:36:22.069Z,99510.56
2022-11-03T12:37:56.717Z,99504.44
2022-11-03T12:39:29.900Z,99509.00
2022-11-03T12:41:21.267Z,99508.78
2022-11-03T12:42:54.528Z,99515.88
2022-11-03T12:44:28.249Z,99507.91
2022-11-03T12:46:01.504Z,99503.63
2022-11-03T12:47:34.795Z,99504.25
2022-11-03T12:49:08.461Z,99502.78
2022-11-03T12:50:42.228Z,99486.97
2022-11-03T12:52:15.822Z,99505.00
2022-11-03T12:53:50.871Z,99516.50
2022-11-03T12:55:24.077Z,99507.91
2022-11-03T12:56:57.438Z,99509.88
2022-11-03T12:58:30.701Z,99507.16
2022-11-03T13:00:06.291Z,99508.41
2022-11-03T13:01:39.654Z,99501.44
2022-11-03T13:03:13.014Z,99507.19
2022-11-03T13:04:46.196Z,99503.44
2022-11-03T13:06:19.334Z,99516.31
2022-11-03T13:07:52.591Z,99513.38
2022-11-03T13:09:27.320Z,99508.84
2022-11-03T13:11:00.813Z,99511.91
2022-11-03T13:12:33.070Z,99511.16
2022-11-03T13:14:06.338Z,99508.75
2022-11-03T13:15:39.784Z,99505.56
2022-11-03T13:17:13.322Z,99507.53
2022-11-03T13:18:46.465Z,99506.06
2022-11-03T13:20:19.699Z,99508.03
2022-11-03T13:21:53.169Z,99502.88
2022-11-03T13:23:26.294Z,99504.75
2022-11-03T13:25:00.955Z,99503.13
2022-11-03T13:26:34.123Z,99511.72
2022-11-03T13:28:07.878Z,99501.38
2022-11-03T13:29:41.224Z,99501.38
2022-11-03T13:31:14.459Z,99486.69
2022-11-03T13:32:47.857Z,99503.84
2022-11-03T13:34:21.148Z,99502.13
2022-11-03T13:35:54.410Z,99501.16
2022-11-03T13:37:27.609Z,99505.06
2022-11-03T13:39:00.923Z,99500.69
2022-11-03T13:40:55.681Z,99504.31
2022-11-03T13:42:29.166Z,99510.84
2022-11-03T13:44:02.707Z,99503.00
2022-11-03T13:45:35.944Z,99503.38
2022-11-03T13:47:11.691Z,99504.09
2022-11-03T13:49:43.869Z,99505.56
2022-11-03T13:50:38.799Z,99515.50
2022-11-03T13:52:12.035Z,99505.31
2022-11-03T14:01:00.872Z,99510.25
2022-11-03T14:04:44.014Z,99504.34
2022-11-03T14:06:17.948Z,99505.81
2022-11-03T14:07:51.214Z,99505.09
2022-11-03T14:09:24.858Z,99512.19
2022-11-03T14:10:59.496Z,99503.97
2022-11-03T14:12:31.912Z,99508.50
2022-11-03T14:14:05.207Z,99507.03
2022-11-03T14:15:38.397Z,99508.00
2022-11-03T14:17:12.404Z,99514.50
2022-11-03T14:18:45.900Z,99499.22
2022-11-03T14:20:19.180Z,99511.94
2022-11-03T14:21:52.397Z,99513.88
2022-11-03T14:23:25.605Z,99512.16
2022-11-03T14:24:59.162Z,99511.44
2022-11-03T14:26:42.116Z,99513.25
2022-11-03T14:28:23.713Z,99485.69
2022-11-03T14:29:59.149Z,99512.91
2022-11-03T14:31:32.697Z,99513.09
2022-11-03T14:33:06.108Z,99516.03
2022-11-03T14:34:39.722Z,99515.53
2022-11-03T14:36:13.094Z,99514.06
2022-11-03T14:37:46.532Z,99510.59
2022-11-03T14:39:19.689Z,99494.31
2022-11-03T14:41:10.628Z,99500.31
2022-11-03T14:42:45.276Z,99501.78
2022-11-03T14:44:18.578Z,99501.25
2022-11-03T14:45:51.877Z,99508.59
2022-11-03T14:47:25.724Z,99501.75
2022-11-03T14:48:58.992Z,99503.06
2022-11-03T14:50:32.332Z,99500.63
2022-11-03T14:52:07.447Z,99494.59
2022-11-03T14:53:40.827Z,99499.47
2022-11-03T14:55:13.967Z,99500.91
2022-11-03T14:56:47.429Z,99505.78
2022-11-03T14:58:22.073Z,99495.91
2022-11-03T14:59:55.192Z,99501.28
2022-11-03T15:01:28.509Z,99500.56
2022-11-03T15:03:02.473Z,99510.81
2022-11-03T15:04:35.704Z,99507.56
2022-11-03T15:06:09.243Z,99517.59
2022-11-03T15:07:42.360Z,99503.41
2022-11-03T15:09:16.534Z,99506.53
2022-11-03T15:10:49.762Z,99508.50
2022-11-03T15:12:22.986Z,99508.72
2022-11-03T15:13:57.549Z,99506.25
2022-11-03T15:15:31.015Z,99510.03
2022-11-03T15:17:04.417Z,99507.66
2022-11-03T15:18:37.580Z,99513.50
2022-11-03T15:20:11.939Z,99500.63
2022-11-03T15:21:45.224Z,99509.88
2022-11-03T15:26:50.624Z,99503.91
2022-11-03T15:28:23.782Z,99507.88
2022-11-03T15:29:58.385Z,99503.88
2022-11-03T15:31:31.548Z,99498.94
2022-11-03T15:33:05.052Z,99500.22
2022-11-03T15:34:38.411Z,99508.63
2022-11-03T15:36:12.244Z,99505.41
2022-11-03T15:37:45.540Z,99511.22
2022-11-03T15:39:18.943Z,99514.44
2022-11-03T15:40:52.143Z,99502.84
2022-11-03T15:42:25.391Z,99507.53
2022-11-03T15:43:58.530Z,99504.75
2022-11-03T15:45:33.426Z,99503.44
2022-11-03T15:47:07.034Z,99504.72
2022-11-03T15:48:40.508Z,99503.31
2022-11-03T15:50:15.965Z,99509.09
2022-11-03T15:51:49.309Z,99508.72
2022-11-03T15:53:22.488Z,99515.13
2022-11-03T15:54:55.629Z,99508.44
2022-11-03T15:56:28.964Z,99508.88
2022-11-03T15:58:02.504Z,99518.06
2022-11-03T15:59:35.787Z,99512.91
2022-11-03T16:01:10.483Z,99512.22
2022-11-03T16:02:43.939Z,99514.81
2022-11-03T16:04:17.479Z,99512.91
2022-11-03T16:05:50.566Z,99511.75
2022-11-03T16:07:24.134Z,99517.09
2022-11-03T16:08:57.236Z,99510.88
2022-11-03T16:10:30.494Z,99514.63
2022-11-03T16:12:03.705Z,99521.91
2022-11-03T16:13:36.869Z,99515.25
2022-11-03T16:15:11.108Z,99510.06
2022-11-03T16:16:46.093Z,99512.66
2022-11-03T16:18:19.290Z,99513.31
2022-11-03T16:19:52.476Z,99518.84
2022-11-03T16:21:25.705Z,99508.66
2022-11-03T16:22:59.085Z,99516.59
2022-11-03T16:24:35.205Z,99516.00
2022-11-03T16:26:09.155Z,99514.72
2022-11-03T16:27:42.568Z,99511.28
2022-11-03T16:29:16.116Z,99513.19
2022-11-03T16:30:54.075Z,99512.44
2022-11-03T16:32:29.221Z,99511.66
2022-11-03T16:34:02.864Z,99512.91
2022-11-03T16:35:36.308Z,99516.63
2022-11-03T16:37:09.545Z,99515.09
2022-11-03T16:38:42.733Z,99514.53
2022-11-03T16:40:19.344Z,99524.88
2022-11-03T16:41:54.861Z,99513.22
2022-11-03T16:43:28.059Z,99507.50
2022-11-03T16:45:01.277Z,99517.81
2022-11-03T16:46:34.384Z,99513.31
2022-11-03T16:48:09.432Z,99512.81
2022-11-03T16:49:42.921Z,99509.94
2022-11-03T16:51:16.175Z,99512.22
2022-11-03T16:52:50.515Z,99514.50
2022-11-03T16:54:23.762Z,99511.91
2022-11-03T16:55:56.998Z,99506.63
2022-11-03T16:57:30.156Z,99503.22
2022-11-03T16:59:03.775Z,99501.78
2022-11-03T17:00:37.337Z,99496.88
2022-11-03T17:02:15.985Z,99505.06
2022-11-03T17:03:52.596Z,99500.94
2022-11-03T17:05:26.155Z,99510.09
2022-11-03T17:06:59.849Z,99506.84
2022-11-03T17:08:51.898Z,99504.53
2022-11-03T17:10:27.775Z,99504.22
2022-11-03T17:12:01.376Z,99500.16
2022-11-03T17:13:34.820Z,99505.88
2022-11-03T17:15:09.065Z,99512.44
2022-11-03T17:16:45.752Z,99505.03
2022-11-03T17:18:19.307Z,99501.94
2022-11-03T17:19:54.054Z,99502.78
2022-11-03T17:21:27.919Z,99496.22
2022-11-03T17:23:01.235Z,99501.66
2022-11-03T17:24:34.739Z,99502.09
2022-11-03T17:26:07.969Z,99504.13
2022-11-03T17:27:46.201Z,99504.50
2022-11-03T17:29:22.565Z,99497.59
2022-11-03T17:30:56.025Z,99501.56
2022-11-03T17:32:31.783Z,99500.31
2022-11-03T17:34:05.146Z,99506.31
2022-11-03T17:35:42.103Z,99500.38
2022-11-03T17:37:15.494Z,99498.03
2022-11-03T17:38:48.737Z,99493.03
2022-11-03T17:40:23.778Z,99500.41
2022-11-03T17:42:06.190Z,99493.53
2022-11-03T17:43:41.567Z,99494.19
2022-11-03T17:45:15.951Z,99489.13
2022-11-03T17:46:49.146Z,99493.34
2022-11-03T17:48:24.044Z,99493.75
2022-11-03T17:49:57.697Z,99492.75
2022-11-03T17:51:33.763Z,99489.38
2022-11-03T17:53:07.252Z,99489.53
2022-11-03T17:54:40.850Z,99492.56
2022-11-03T17:56:33.926Z,99491.88
2022-11-03T17:58:07.312Z,99487.72
2022-11-03T17:59:41.196Z,99487.66
2022-11-03T18:01:20.440Z,99486.94
2022-11-03T18:02:56.051Z,99492.59
2022-11-03T18:04:29.310Z,99483.19
2022-11-03T18:06:02.569Z,99478.47
2022-11-03T18:07:37.414Z,99476.31
2022-11-03T18:09:10.878Z,99477.63
2022-11-03T18:10:46.623Z,99481.38
2022-11-03T18:12:40.650Z,99481.53
2022-11-03T18:14:13.251Z,99479.94
2022-11-03T18:15:53.027Z,99478.69
2022-11-03T18:17:26.274Z,99474.63
2022-11-03T18:18:59.970Z,99481.25
2022-11-03T18:20:33.477Z,99468.59
2022-11-03T18:22:07.465Z,99470.34
2022-11-03T18:23:42.125Z,99463.78
2022-11-03T18:25:15.537Z,99473.69
2022-11-03T18:26:49.061Z,99467.56
2022-11-03T18:28:22.994Z,99470.44
2022-11-03T18:29:56.171Z,99468.78
2022-11-03T18:31:34.419Z,99469.72
2022-11-03T18:33:10.467Z,99466.25
2022-11-03T18:34:44.143Z,99462.81
2022-11-03T18:36:19.030Z,99469.66
2022-11-03T18:37:52.760Z,99474.91
2022-11-03T18:39:29.925Z,99462.41
2022-11-03T18:41:23.475Z,99466.78
2022-11-03T18:42:56.852Z,99473.03
2022-11-03T18:44:31.352Z,99471.19
2022-11-03T18:46:04.670Z,99470.31
2022-11-03T18:47:37.905Z,99457.88
2022-11-03T18:49:11.501Z,99465.84
2022-11-03T18:50:45.395Z,99462.31
2022-11-03T18:52:19.575Z,99462.53
2022-11-03T18:53:52.772Z,99464.13
2022-11-03T18:55:27.455Z,99470.50
2022-11-03T18:57:01.127Z,99460.81
2022-11-03T18:58:35.004Z,99451.47
2022-11-03T19:00:17.465Z,99462.81
2022-11-03T19:01:50.864Z,99465.69
2022-11-03T19:03:25.045Z,99472.00
2022-11-03T19:04:58.274Z,99471.19
2022-11-03T19:06:31.651Z,99466.19
2022-11-03T19:08:05.526Z,99469.91
2022-11-03T19:09:39.796Z,99467.44
2022-11-03T19:11:15.627Z,99477.41
2022-11-03T19:12:49.020Z,99464.31